createdAt,value
2019-01-29T00:01:39.268Z,37.93
2019-01-29T00:04:10.897Z,32.20
2019-01-29T00:06:42.633Z,39.07
2019-01-29T00:09:14.368Z,34.53
2019-01-29T00:11:46.011Z,34.40
2019-01-29T00:14:17.638Z,35.10
2019-01-29T00:16:49.264Z,40.33
2019-01-29T00:19:20.897Z,36.43
2019-01-29T00:21:52.548Z,42.17
2019-01-29T00:24:24.168Z,37.27
2019-01-29T00:26:55.816Z,39.23
2019-01-29T00:29:27.444Z,39.43
2019-01-29T00:31:59.082Z,36.27
2019-01-29T00:34:30.715Z,30.27
2019-01-29T00:37:02.359Z,36.37
2019-01-29T00:39:33.985Z,33.30
2019-01-29T00:42:05.626Z,25.83
2019-01-29T00:44:37.248Z,31.77
2019-01-29T00:47:08.881Z,27.83
2019-01-29T00:49:40.523Z,25.80
2019-01-29T00:52:12.249Z,24.60
2019-01-29T00:54:43.874Z,20.40
2019-01-29T00:57:15.508Z,19.10
2019-01-29T00:59:47.134Z,20.20
2019-01-29T01:02:18.763Z,22.93
2019-01-29T01:04:50.388Z,24.27
2019-01-29T01:07:22.257Z,22.83
2019-01-29T01:09:57.206Z,24.37
2019-01-29T01:12:27.555Z,20.30
2019-01-29T01:14:59.179Z,23.03
2019-01-29T01:17:30.827Z,26.53
2019-01-29T01:20:03.837Z,25.27
2019-01-29T01:22:35.635Z,27.60
2019-01-29T01:25:07.549Z,28.63
2019-01-29T01:27:39.298Z,30.80
2019-01-29T01:30:13.569Z,34.77
2019-01-29T01:32:45.321Z,30.97
2019-01-29T01:35:16.940Z,30.50
2019-01-29T01:37:48.589Z,33.90
2019-01-29T01:40:21.553Z,26.90
2019-01-29T01:42:53.281Z,29.70
2019-01-29T01:45:25.001Z,27.93
2019-01-29T01:47:56.640Z,27.67
2019-01-29T01:50:28.273Z,34.53
2019-01-29T01:52:59.913Z,27.43
2019-01-29T01:55:31.520Z,26.50
2019-01-29T01:58:03.357Z,24.50
2019-01-29T02:00:35.476Z,25.37
2019-01-29T02:03:07.121Z,21.67
2019-01-29T02:05:38.753Z,20.47
2019-01-29T02:08:10.384Z,21.03
2019-01-29T02:10:42.044Z,20.00
2019-01-29T02:13:13.674Z,17.13
2019-01-29T02:15:45.285Z,21.67
2019-01-29T02:18:16.927Z,21.20
2019-01-29T02:20:48.544Z,20.17
2019-01-29T02:23:20.169Z,21.37
2019-01-29T02:25:51.792Z,18.93
2019-01-29T02:28:23.436Z,22.33
2019-01-29T02:30:55.068Z,23.83
2019-01-29T02:33:26.701Z,23.60
2019-01-29T02:35:58.326Z,21.70
2019-01-29T02:38:29.974Z,24.10
2019-01-29T02:41:01.597Z,23.67
2019-01-29T02:43:33.228Z,28.60
2019-01-29T02:46:04.954Z,23.17
2019-01-29T02:48:36.611Z,25.97
2019-01-29T02:51:08.245Z,27.23
2019-01-29T02:53:40.071Z,24.77
2019-01-29T02:56:11.718Z,29.80
2019-01-29T02:58:43.437Z,27.63
2019-01-29T03:01:15.070Z,24.93
2019-01-29T03:03:46.697Z,24.67
2019-01-29T03:06:18.427Z,25.27
2019-01-29T03:08:50.152Z,23.97
2019-01-29T03:11:21.776Z,23.43
2019-01-29T03:13:53.630Z,28.43
2019-01-29T03:16:25.264Z,29.17
2019-01-29T03:18:56.890Z,26.60
2019-01-29T03:21:28.523Z,28.03
2019-01-29T03:24:00.152Z,26.53
2019-01-29T03:26:31.779Z,28.50
2019-01-29T03:29:03.628Z,26.93
2019-01-29T03:31:35.249Z,28.80
2019-01-29T03:34:06.874Z,30.83
2019-01-29T03:36:38.486Z,32.47
2019-01-29T03:39:10.133Z,26.03
2019-01-29T03:41:41.891Z,32.50
2019-01-29T03:44:13.520Z,30.70
2019-01-29T03:46:45.141Z,30.00
2019-01-29T03:49:16.769Z,32.90
2019-01-29T03:51:48.382Z,33.67
2019-01-29T03:54:20.018Z,33.03
2019-01-29T03:56:51.629Z,29.53
2019-01-29T03:59:23.270Z,30.53
2019-01-29T04:01:54.893Z,36.43
2019-01-29T04:04:26.524Z,27.97
2019-01-29T04:06:58.238Z,27.73
2019-01-29T04:09:29.881Z,31.80
2019-01-29T04:12:01.508Z,27.20
2019-01-29T04:14:33.133Z,23.07
2019-01-29T04:17:05.056Z,23.93
2019-01-29T04:19:36.792Z,29.30
2019-01-29T04:22:08.507Z,23.50
2019-01-29T04:24:40.144Z,22.47
2019-01-29T04:27:11.770Z,23.70
2019-01-29T04:29:43.395Z,22.60
2019-01-29T04:32:15.016Z,38.40
2019-01-29T04:34:46.677Z,20.83
2019-01-29T04:37:20.741Z,22.20
2019-01-29T04:39:52.637Z,26.73
2019-01-29T04:42:24.262Z,23.10
2019-01-29T04:44:55.878Z,22.20
2019-01-29T04:47:27.517Z,24.80
2019-01-29T04:49:59.166Z,24.43
2019-01-29T04:52:33.322Z,18.10
2019-01-29T04:55:06.034Z,18.60
2019-01-29T04:57:37.880Z,23.17
2019-01-29T05:00:12.464Z,20.50
2019-01-29T05:02:44.733Z,21.23
2019-01-29T05:05:17.670Z,21.57
2019-01-29T05:07:49.695Z,22.73
2019-01-29T05:10:21.625Z,26.73
2019-01-29T05:12:53.235Z,35.83
2019-01-29T05:15:24.986Z,28.07
2019-01-29T05:17:56.610Z,26.97
2019-01-29T05:20:28.244Z,29.13
2019-01-29T05:22:59.887Z,25.47
2019-01-29T05:25:31.615Z,26.10
2019-01-29T05:28:03.552Z,28.57
2019-01-29T05:30:35.193Z,31.80
2019-01-29T05:33:06.836Z,32.40
2019-01-29T05:35:38.461Z,29.20
2019-01-29T05:38:10.089Z,34.07
2019-01-29T05:40:41.726Z,25.00
2019-01-29T05:43:13.382Z,32.80
2019-01-29T05:45:44.997Z,30.40
2019-01-29T05:48:16.616Z,27.00
2019-01-29T05:50:48.274Z,23.67
2019-01-29T05:53:19.943Z,29.47
2019-01-29T05:55:51.644Z,27.23
2019-01-29T05:58:23.283Z,27.27
2019-01-29T06:00:54.916Z,28.47
2019-01-29T06:03:26.579Z,38.47
2019-01-29T06:05:58.202Z,33.73
2019-01-29T06:08:29.832Z,33.37
2019-01-29T06:11:01.467Z,34.87
2019-01-29T06:13:33.100Z,44.87
2019-01-29T06:16:04.730Z,37.77
2019-01-29T06:18:36.359Z,31.30
2019-01-29T06:21:08.088Z,34.53
2019-01-29T06:23:39.713Z,29.43
2019-01-29T06:26:11.349Z,38.83
2019-01-29T06:28:43.064Z,30.37
2019-01-29T06:31:14.694Z,30.73
2019-01-29T06:33:46.331Z,29.90
2019-01-29T06:36:17.976Z,30.90
2019-01-29T06:38:49.609Z,42.80
2019-01-29T06:41:21.350Z,26.00
2019-01-29T06:43:52.983Z,29.00
2019-01-29T06:46:24.629Z,33.43
2019-01-29T06:48:56.253Z,27.10
2019-01-29T06:51:27.885Z,37.47
2019-01-29T06:53:59.505Z,42.93
2019-01-29T06:56:31.144Z,36.57
2019-01-29T06:59:02.905Z,33.37
2019-01-29T07:01:34.546Z,34.90
2019-01-29T07:04:06.180Z,33.63
2019-01-29T07:06:37.795Z,33.97
2019-01-29T07:09:09.640Z,34.40
2019-01-29T07:11:41.301Z,35.10
2019-01-29T07:14:12.927Z,39.10
2019-01-29T07:16:54.991Z,39.73
2019-01-29T07:19:35.015Z,25.83
2019-01-29T07:22:06.655Z,26.30
2019-01-29T07:24:42.862Z,29.67
2019-01-29T07:27:11.814Z,35.00
2019-01-29T07:29:43.445Z,35.90
2019-01-29T07:32:15.094Z,35.07
2019-01-29T07:34:46.736Z,30.30
2019-01-29T07:37:22.170Z,31.53
2019-01-29T07:39:51.993Z,31.13
2019-01-29T07:42:23.639Z,31.37
2019-01-29T07:44:55.268Z,27.27
2019-01-29T07:47:26.889Z,29.33
2019-01-29T07:49:58.514Z,26.83
2019-01-29T07:52:30.165Z,41.10
2019-01-29T07:55:01.908Z,27.53
2019-01-29T07:57:33.627Z,38.80
2019-01-29T08:00:06.061Z,34.30
2019-01-29T08:02:37.717Z,30.30
2019-01-29T08:05:09.568Z,35.37
2019-01-29T08:07:41.206Z,31.50
2019-01-29T08:10:13.458Z,38.80
2019-01-29T08:12:45.195Z,29.73
2019-01-29T08:15:17.265Z,27.13
2019-01-29T08:17:49.139Z,28.73
2019-01-29T08:20:20.763Z,34.17
2019-01-29T08:22:52.386Z,37.20
2019-01-29T08:25:24.010Z,33.33
2019-01-29T08:27:55.641Z,30.20
2019-01-29T08:30:27.266Z,24.60
2019-01-29T08:32:58.900Z,26.23
2019-01-29T08:35:30.535Z,27.07
2019-01-29T08:38:02.181Z,36.47
2019-01-29T08:40:33.827Z,26.10
2019-01-29T08:43:05.461Z,35.60
2019-01-29T08:45:37.092Z,26.90
2019-01-29T08:48:08.761Z,31.30
2019-01-29T08:50:40.397Z,29.57
2019-01-29T08:53:12.038Z,29.33
2019-01-29T08:55:43.673Z,34.43
2019-01-29T08:58:15.358Z,32.17
2019-01-29T09:00:46.985Z,33.40
2019-01-29T09:03:18.631Z,30.10
2019-01-29T09:05:50.254Z,33.07
2019-01-29T09:08:21.896Z,31.57
2019-01-29T09:10:53.546Z,33.00
2019-01-29T09:13:25.181Z,37.37
2019-01-29T09:15:56.821Z,31.40
2019-01-29T09:18:28.450Z,32.37
2019-01-29T09:21:00.073Z,34.53
2019-01-29T09:23:31.713Z,32.00
2019-01-29T09:26:03.345Z,40.47
2019-01-29T09:28:34.984Z,35.50
2019-01-29T09:31:06.612Z,33.20
2019-01-29T09:33:38.264Z,29.27
2019-01-29T09:36:09.881Z,26.07
2019-01-29T09:38:41.525Z,33.27
2019-01-29T09:41:13.144Z,28.57
2019-01-29T09:43:44.772Z,25.67
2019-01-29T09:46:16.706Z,32.73
2019-01-29T09:48:48.362Z,38.30
2019-01-29T09:51:20.009Z,31.43
2019-01-29T09:53:51.667Z,33.63
2019-01-29T09:56:23.289Z,27.00
2019-01-29T09:58:54.934Z,33.87
2019-01-29T10:01:26.558Z,35.90
2019-01-29T10:03:58.185Z,37.50
2019-01-29T10:06:29.827Z,34.57
2019-01-29T10:09:01.460Z,29.73
2019-01-29T10:11:33.129Z,22.87
2019-01-29T10:14:05.204Z,27.60
2019-01-29T10:16:36.841Z,31.40
2019-01-29T10:19:08.506Z,28.63
2019-01-29T10:21:40.230Z,30.43
2019-01-29T10:24:11.870Z,32.57
2019-01-29T10:26:43.502Z,28.07
2019-01-29T10:29:15.234Z,33.20
2019-01-29T10:31:46.869Z,31.03
2019-01-29T10:34:18.508Z,34.10
2019-01-29T10:36:50.171Z,32.97
2019-01-29T10:39:21.826Z,27.40
2019-01-29T10:41:53.799Z,32.80
2019-01-29T10:44:25.505Z,20.80
2019-01-29T10:46:57.116Z,30.63
2019-01-29T10:49:28.759Z,31.93
2019-01-29T10:52:00.390Z,27.10
2019-01-29T10:54:32.050Z,27.93
2019-01-29T10:57:03.890Z,27.17
2019-01-29T10:59:35.516Z,26.67
2019-01-29T11:02:07.343Z,29.40
2019-01-29T11:04:39.365Z,28.13
2019-01-29T11:07:11.094Z,25.67
2019-01-29T11:09:42.741Z,23.40
2019-01-29T11:12:14.340Z,29.80
2019-01-29T11:14:45.984Z,28.40
2019-01-29T11:17:17.620Z,23.20
2019-01-29T11:19:49.352Z,29.57
2019-01-29T11:22:20.988Z,25.57
2019-01-29T11:24:52.625Z,29.53
2019-01-29T11:27:24.269Z,25.10
2019-01-29T11:29:55.897Z,20.13
2019-01-29T11:32:27.609Z,30.40
2019-01-29T11:34:59.252Z,24.57
2019-01-29T11:37:30.882Z,32.77
2019-01-29T11:40:03.191Z,33.53
2019-01-29T11:42:34.815Z,29.13
2019-01-29T11:45:10.040Z,27.20
2019-01-29T11:47:41.660Z,30.00
2019-01-29T11:50:13.629Z,28.23
2019-01-29T11:52:45.343Z,31.43
2019-01-29T11:55:17.185Z,26.60
2019-01-29T11:57:48.802Z,29.73
2019-01-29T12:00:29.852Z,34.97
2019-01-29T12:03:01.599Z,25.73
2019-01-29T12:05:33.338Z,30.90
2019-01-29T12:08:05.750Z,33.27
2019-01-29T12:10:37.603Z,23.40
2019-01-29T12:13:09.228Z,25.70
2019-01-29T12:15:41.068Z,19.37
2019-01-29T12:18:12.795Z,26.53
2019-01-29T12:20:44.536Z,22.73
2019-01-29T12:23:16.162Z,21.23
2019-01-29T12:25:47.909Z,21.50
2019-01-29T12:28:19.530Z,20.60
2019-01-29T12:30:51.265Z,34.23
2019-01-29T12:33:23.001Z,27.07
2019-01-29T12:35:54.659Z,27.50
2019-01-29T12:38:26.370Z,24.30
2019-01-29T12:40:58.018Z,21.47
2019-01-29T12:43:29.648Z,20.90
2019-01-29T12:46:01.504Z,19.47
2019-01-29T12:48:33.130Z,18.07
2019-01-29T12:51:08.573Z,15.43
2019-01-29T12:53:41.548Z,10.73
2019-01-29T12:56:21.273Z,18.43
2019-01-29T12:58:46.718Z,13.83
2019-01-29T13:01:18.360Z,14.63
2019-01-29T13:03:49.978Z,13.43
2019-01-29T13:06:21.624Z,19.93
2019-01-29T13:08:53.260Z,27.97
2019-01-29T13:11:24.906Z,19.03
2019-01-29T13:13:56.824Z,15.00
2019-01-29T13:16:28.457Z,12.90
2019-01-29T13:19:00.102Z,18.97
2019-01-29T13:21:31.742Z,12.50
2019-01-29T13:24:03.502Z,19.37
2019-01-29T13:26:35.136Z,20.03
2019-01-29T13:29:06.869Z,26.87
2019-01-29T13:31:38.494Z,19.67
2019-01-29T13:34:10.120Z,37.43
2019-01-29T13:36:41.761Z,17.97
2019-01-29T13:39:13.418Z,18.33
2019-01-29T13:41:45.059Z,27.67
2019-01-29T13:44:16.681Z,27.37
2019-01-29T13:46:48.312Z,11.97
2019-01-29T13:49:19.945Z,19.83
2019-01-29T13:51:51.582Z,27.47
2019-01-29T13:54:23.967Z,18.47
2019-01-29T13:56:55.746Z,24.30
2019-01-29T13:59:27.366Z,16.53
2019-01-29T14:01:59.017Z,25.83
2019-01-29T14:04:30.645Z,19.13
2019-01-29T14:07:02.378Z,17.70
2019-01-29T14:09:34.029Z,24.27
2019-01-29T14:12:05.875Z,24.47
2019-01-29T14:14:37.498Z,30.23
2019-01-29T14:17:09.142Z,18.93
2019-01-29T14:19:40.750Z,25.87
2019-01-29T14:22:12.417Z,17.23
2019-01-29T14:24:44.067Z,16.07
2019-01-29T14:27:15.692Z,17.20
2019-01-29T14:29:47.321Z,23.40
2019-01-29T14:32:19.006Z,24.07
2019-01-29T14:34:50.732Z,29.60
2019-01-29T14:37:22.373Z,18.27
2019-01-29T14:40:09.797Z,16.23
2019-01-29T14:42:41.577Z,16.70
2019-01-29T14:45:18.014Z,14.00
2019-01-29T14:47:49.748Z,18.17
2019-01-29T14:50:21.995Z,21.37
2019-01-29T14:52:53.747Z,17.23
2019-01-29T14:55:25.981Z,22.37
2019-01-29T14:57:57.630Z,19.13
2019-01-29T15:00:29.573Z,18.77
2019-01-29T15:03:02.163Z,21.47
2019-01-29T15:05:33.784Z,14.83
2019-01-29T15:08:05.731Z,24.73
2019-01-29T15:10:37.456Z,22.43
2019-01-29T15:13:09.189Z,18.47
2019-01-29T15:15:46.240Z,14.97
2019-01-29T15:18:21.069Z,25.40
2019-01-29T15:20:52.796Z,23.00
2019-01-29T15:23:24.434Z,18.53
2019-01-29T15:25:56.062Z,20.57
2019-01-29T15:28:27.696Z,16.67
2019-01-29T15:30:59.349Z,22.70
2019-01-29T15:33:30.994Z,15.40
2019-01-29T15:36:03.425Z,12.23
2019-01-29T15:38:35.053Z,22.53
2019-01-29T15:41:06.896Z,13.67
2019-01-29T15:43:38.657Z,11.70
2019-01-29T15:46:10.297Z,21.57
2019-01-29T15:48:42.077Z,11.27
2019-01-29T15:51:13.721Z,17.63
2019-01-29T15:53:45.356Z,24.90
2019-01-29T15:56:16.978Z,16.27
2019-01-29T15:58:48.630Z,15.83
2019-01-29T16:01:20.251Z,16.27
2019-01-29T16:03:51.901Z,21.13
2019-01-29T16:06:23.607Z,15.87
2019-01-29T16:08:55.255Z,16.63
2019-01-29T16:11:26.901Z,14.20
2019-01-29T16:13:58.559Z,18.23
2019-01-29T16:16:30.180Z,21.60
2019-01-29T16:19:01.847Z,15.50
2019-01-29T16:21:33.606Z,15.90
2019-01-29T16:24:05.253Z,21.87
2019-01-29T16:26:36.909Z,18.63
2019-01-29T16:29:08.543Z,15.27
2019-01-29T16:31:40.185Z,20.80
2019-01-29T16:34:11.810Z,23.43
2019-01-29T16:36:43.453Z,31.63
2019-01-29T16:39:15.089Z,23.10
2019-01-29T16:41:46.742Z,11.90
2019-01-29T16:44:18.396Z,23.87
2019-01-29T16:46:50.029Z,18.43
2019-01-29T16:49:21.660Z,19.90
2019-01-29T16:51:53.286Z,23.97
2019-01-29T16:54:24.937Z,15.87
2019-01-29T16:56:56.591Z,25.10
2019-01-29T16:59:28.231Z,26.90
2019-01-29T17:01:59.876Z,16.17
2019-01-29T17:04:31.512Z,16.23
2019-01-29T17:07:03.337Z,19.87
2019-01-29T17:09:34.954Z,60.83
2019-01-29T17:12:06.631Z,16.37
2019-01-29T17:14:38.266Z,13.33
2019-01-29T17:17:09.916Z,15.80
2019-01-29T17:19:41.549Z,9.50
2019-01-29T17:22:13.202Z,18.67
2019-01-29T17:24:44.836Z,13.57
2019-01-29T17:27:16.525Z,18.03
2019-01-29T17:29:48.155Z,18.13
2019-01-29T17:32:19.830Z,19.17
2019-01-29T17:34:51.473Z,10.40
2019-01-29T17:37:23.116Z,14.40
2019-01-29T17:39:54.750Z,19.17
2019-01-29T17:42:26.381Z,9.33
2019-01-29T17:44:58.032Z,8.37
2019-01-29T17:47:29.673Z,18.73
2019-01-29T17:50:01.514Z,20.13
2019-01-29T17:52:33.157Z,16.87
2019-01-29T17:55:06.470Z,19.13
2019-01-29T17:57:38.116Z,12.93
2019-01-29T18:00:13.465Z,12.13
2019-01-29T18:02:48.265Z,19.63
2019-01-29T18:05:20.106Z,16.97
2019-01-29T18:07:51.740Z,17.23
2019-01-29T18:10:23.589Z,16.47
2019-01-29T18:12:55.280Z,18.43
2019-01-29T18:15:27.260Z,20.53
2019-01-29T18:17:59.005Z,15.50
2019-01-29T18:20:30.628Z,16.93
2019-01-29T18:23:02.275Z,18.17
2019-01-29T18:25:33.917Z,13.47
2019-01-29T18:28:08.290Z,21.40
2019-01-29T18:30:39.333Z,27.30
2019-01-29T18:33:10.999Z,24.33
2019-01-29T18:35:42.721Z,14.37
2019-01-29T18:38:14.365Z,18.17
2019-01-29T18:40:49.333Z,12.90
2019-01-29T18:43:20.973Z,27.83
2019-01-29T18:45:52.698Z,15.80
2019-01-29T18:48:24.333Z,18.97
2019-01-29T18:50:56.197Z,16.93
2019-01-29T18:53:27.824Z,17.33
2019-01-29T18:55:59.471Z,22.27
2019-01-29T18:58:31.123Z,12.83
2019-01-29T19:01:03.066Z,20.00
2019-01-29T19:03:34.779Z,16.97
2019-01-29T19:06:06.550Z,17.37
2019-01-29T19:08:38.205Z,23.30
2019-01-29T19:11:09.957Z,25.20
2019-01-29T19:13:41.614Z,28.57
2019-01-29T19:16:15.693Z,26.10
2019-01-29T19:18:46.926Z,29.13
2019-01-29T19:21:18.716Z,17.00
2019-01-29T19:23:50.377Z,16.63
2019-01-29T19:26:22.161Z,16.53
2019-01-29T19:28:53.877Z,15.83
2019-01-29T19:31:25.541Z,17.13
2019-01-29T19:33:57.218Z,24.43
2019-01-29T19:36:28.881Z,16.17
2019-01-29T19:39:00.552Z,18.63
2019-01-29T19:41:32.218Z,13.10
2019-01-29T19:44:03.885Z,28.07
2019-01-29T19:46:35.568Z,27.10
2019-01-29T19:49:07.217Z,19.77
2019-01-29T19:51:38.978Z,19.47
2019-01-29T19:54:10.610Z,25.40
2019-01-29T19:56:42.539Z,21.27
2019-01-29T19:59:14.296Z,17.77
2019-01-29T20:01:45.984Z,23.87
2019-01-29T20:04:17.729Z,22.27
2019-01-29T20:06:49.400Z,19.43
2019-01-29T20:09:21.067Z,27.40
2019-01-29T20:11:52.854Z,21.87
2019-01-29T20:14:24.500Z,16.93
2019-01-29T20:16:56.189Z,22.97
2019-01-29T20:19:27.910Z,18.83
2019-01-29T20:21:59.577Z,24.37
2019-01-29T20:24:31.261Z,27.87
2019-01-29T20:27:02.962Z,21.83
2019-01-29T20:29:34.609Z,20.10
2019-01-29T20:32:06.430Z,30.30
2019-01-29T20:34:38.087Z,32.40
2019-01-29T20:37:09.887Z,28.10
2019-01-29T20:39:41.530Z,19.90
2019-01-29T20:42:13.210Z,21.77
2019-01-29T20:44:44.850Z,16.63
2019-01-29T20:47:16.560Z,15.67
2019-01-29T20:49:48.209Z,20.77
2019-01-29T20:52:19.942Z,18.60
2019-01-29T20:54:51.604Z,23.73
2019-01-29T20:57:23.293Z,27.57
2019-01-29T20:59:54.989Z,24.27
2019-01-29T21:02:26.764Z,21.40
2019-01-29T21:04:58.454Z,23.10
2019-01-29T21:07:30.129Z,17.10
2019-01-29T21:10:01.843Z,21.67
2019-01-29T21:12:33.577Z,19.57
2019-01-29T21:15:08.113Z,26.60
2019-01-29T21:17:39.787Z,25.67
2019-01-29T21:20:13.808Z,30.43
2019-01-29T21:22:45.462Z,25.17
2019-01-29T21:25:17.222Z,21.17
2019-01-29T21:27:48.977Z,19.40
2019-01-29T21:30:28.921Z,23.50
2019-01-29T21:33:00.553Z,18.40
2019-01-29T21:35:32.310Z,19.47
2019-01-29T21:38:04.452Z,27.50
2019-01-29T21:40:36.088Z,29.33
2019-01-29T21:43:07.728Z,24.97
2019-01-29T21:45:39.469Z,18.97
2019-01-29T21:48:11.194Z,24.57
2019-01-29T21:50:42.837Z,19.73
2019-01-29T21:53:14.490Z,24.50
2019-01-29T21:55:46.138Z,34.57
2019-01-29T21:58:17.753Z,28.73
2019-01-29T22:00:49.506Z,27.77
2019-01-29T22:03:21.143Z,26.33
2019-01-29T22:05:52.886Z,34.80
2019-01-29T22:08:24.499Z,28.40
2019-01-29T22:10:56.250Z,32.03
2019-01-29T22:13:27.982Z,32.97
2019-01-29T22:15:59.637Z,34.43
2019-01-29T22:18:31.259Z,27.60
2019-01-29T22:21:02.996Z,38.43
2019-01-29T22:23:34.628Z,34.30
2019-01-29T22:26:06.261Z,29.10
2019-01-29T22:28:37.884Z,38.20
2019-01-29T22:31:09.525Z,41.80
2019-01-29T22:33:41.163Z,43.17
2019-01-29T22:36:12.792Z,39.30
2019-01-29T22:38:44.420Z,47.13
2019-01-29T22:41:16.050Z,40.63
2019-01-29T22:43:47.669Z,40.23
2019-01-29T22:46:19.313Z,41.60
2019-01-29T22:48:50.946Z,48.77
2019-01-29T22:51:22.582Z,50.13
2019-01-29T22:53:54.231Z,44.67
2019-01-29T22:56:25.856Z,41.43
2019-01-29T22:58:57.577Z,38.77
2019-01-29T23:01:35.732Z,40.73
2019-01-29T23:04:12.722Z,53.63
2019-01-29T23:06:55.326Z,48.93
2019-01-29T23:09:27.065Z,52.27
2019-01-29T23:11:58.699Z,59.50
2019-01-29T23:14:30.333Z,77.77
2019-01-29T23:17:02.076Z,69.23
2019-01-29T23:19:33.700Z,55.53
2019-01-29T23:22:05.445Z,56.27
2019-01-29T23:24:37.064Z,62.67
2019-01-29T23:27:09.041Z,64.30
2019-01-29T23:29:43.568Z,55.20
2019-01-29T23:32:14.225Z,70.70
2019-01-29T23:34:45.861Z,79.77
2019-01-29T23:37:17.507Z,72.87
2019-01-29T23:39:49.138Z,61.67
2019-01-29T23:42:20.885Z,74.77
2019-01-29T23:44:52.508Z,79.07
2019-01-29T23:47:24.145Z,66.83
2019-01-29T23:49:55.773Z,81.50
2019-01-29T23:52:27.401Z,74.70
2019-01-29T23:54:59.029Z,71.40
2019-01-29T23:57:30.653Z,71.77
